sensor_id;sensor_type;location;lat;lon;timestamp;pressure;altitude;pressure_sealevel;temperature;humidity
43683;BME280;29285;52.128;21.060;2022-10-17T00:04:41;101243.13;;;14.31;75.31
43683;BME280;29285;52.128;21.060;2022-10-17T00:09:43;101252.72;;;14.30;75.40
43683;BME280;29285;52.128;21.060;2022-10-17T00:14:44;101251.41;;;14.30;75.49
43683;BME280;29285;52.128;21.060;2022-10-17T00:19:45;101260.66;;;14.26;75.52
43683;BME280;29285;52.128;21.060;2022-10-17T00:24:46;101253.63;;;14.28;75.60
43683;BME280;29285;52.128;21.060;2022-10-17T00:29:48;101252.28;;;14.31;75.68
43683;BME280;29285;52.128;21.060;2022-10-17T00:34:50;101250.98;;;14.31;75.76
43683;BME280;29285;52.128;21.060;2022-10-17T00:39:51;101244.88;;;14.29;75.78
43683;BME280;29285;52.128;21.060;2022-10-17T00:44:57;101250.82;;;14.40;75.87
43683;BME280;29285;52.128;21.060;2022-10-17T00:50:01;101248.91;;;14.49;75.97
43683;BME280;29285;52.128;21.060;2022-10-17T00:55:08;101256.75;;;14.50;75.96
43683;BME280;29285;52.128;21.060;2022-10-17T01:00:21;101263.69;;;14.53;75.95
43683;BME280;29285;52.128;21.060;2022-10-17T01:05:23;101254.47;;;14.56;75.95
43683;BME280;29285;52.128;21.060;2022-10-17T01:10:46;101259.22;;;14.58;75.94
43683;BME280;29285;52.128;21.060;2022-10-17T01:15:58;101259.30;;;14.55;75.88
43683;BME280;29285;52.128;21.060;2022-10-17T01:32:07;101275.62;;;14.43;75.71
43683;BME280;29285;52.128;21.060;2022-10-17T01:37:31;101267.36;;;14.42;75.75
43683;BME280;29285;52.128;21.060;2022-10-17T01:42:54;101263.39;;;14.46;75.84
43683;BME280;29285;52.128;21.060;2022-10-17T01:47:44;101255.94;;;14.47;75.87
43683;BME280;29285;52.128;21.060;2022-10-17T01:52:49;101255.00;;;14.51;75.95
43683;BME280;29285;52.128;21.060;2022-10-17T01:57:56;101258.86;;;14.54;75.99
43683;BME280;29285;52.128;21.060;2022-10-17T02:02:59;101258.30;;;14.61;76.08
43683;BME280;29285;52.128;21.060;2022-10-17T02:08:02;101249.50;;;14.65;76.13
43683;BME280;29285;52.128;21.060;2022-10-17T02:34:08;101267.61;;;14.53;75.95
43683;BME280;29285;52.128;21.060;2022-10-17T02:39:25;101281.21;;;14.49;75.93
43683;BME280;29285;52.128;21.060;2022-10-17T02:44:27;101279.52;;;14.47;75.92
43683;BME280;29285;52.128;21.060;2022-10-17T02:49:50;101301.81;;;14.43;75.92
43683;BME280;29285;52.128;21.060;2022-10-17T03:00:18;101303.23;;;14.37;75.90
43683;BME280;29285;52.128;21.060;2022-10-17T03:05:25;101314.59;;;14.36;75.90
43683;BME280;29285;52.128;21.060;2022-10-17T03:10:25;101317.65;;;14.36;75.95
43683;BME280;29285;52.128;21.060;2022-10-17T03:15:26;101318.15;;;14.32;75.94
43683;BME280;29285;52.128;21.060;2022-10-17T03:20:27;101333.89;;;14.29;75.90
43683;BME280;29285;52.128;21.060;2022-10-17T03:25:29;101346.16;;;14.27;75.89
43683;BME280;29285;52.128;21.060;2022-10-17T03:30:30;101354.05;;;14.24;75.86
43683;BME280;29285;52.128;21.060;2022-10-17T03:35:32;101336.22;;;14.20;75.85
43683;BME280;29285;52.128;21.060;2022-10-17T03:40:33;101331.48;;;14.16;75.87
43683;BME280;29285;52.128;21.060;2022-10-17T03:45:34;101329.81;;;14.11;75.85
43683;BME280;29285;52.128;21.060;2022-10-17T03:50:36;101344.25;;;14.09;75.88
43683;BME280;29285;52.128;21.060;2022-10-17T03:55:37;101339.45;;;14.09;75.95
43683;BME280;29285;52.128;21.060;2022-10-17T04:00:38;101344.66;;;14.12;76.03
43683;BME280;29285;52.128;21.060;2022-10-17T04:05:39;101340.67;;;14.13;76.09
43683;BME280;29285;52.128;21.060;2022-10-17T04:10:41;101348.11;;;14.12;76.12
43683;BME280;29285;52.128;21.060;2022-10-17T04:15:52;101345.08;;;14.11;76.15
43683;BME280;29285;52.128;21.060;2022-10-17T04:20:55;101349.44;;;14.11;76.15
43683;BME280;29285;52.128;21.060;2022-10-17T04:26:01;101349.48;;;14.09;76.15
43683;BME280;29285;52.128;21.060;2022-10-17T04:31:07;101361.27;;;14.09;76.18
43683;BME280;29285;52.128;21.060;2022-10-17T04:36:11;101363.10;;;14.02;76.16
43683;BME280;29285;52.128;21.060;2022-10-17T04:41:15;101381.43;;;14.01;76.14
43683;BME280;29285;52.128;21.060;2022-10-17T04:46:17;101379.71;;;14.00;76.19
43683;BME280;29285;52.128;21.060;2022-10-17T04:51:19;101369.75;;;13.95;76.17
43683;BME280;29285;52.128;21.060;2022-10-17T04:56:21;101369.34;;;13.92;76.16
43683;BME280;29285;52.128;21.060;2022-10-17T05:01:23;101365.45;;;13.89;76.15
43683;BME280;29285;52.128;21.060;2022-10-17T05:06:25;101368.20;;;13.78;76.10
43683;BME280;29285;52.128;21.060;2022-10-17T05:11:31;101380.45;;;13.76;76.12
43683;BME280;29285;52.128;21.060;2022-10-17T05:16:32;101380.92;;;13.74;76.17
43683;BME280;29285;52.128;21.060;2022-10-17T05:21:33;101386.66;;;13.69;76.22
43683;BME280;29285;52.128;21.060;2022-10-17T05:26:36;101401.95;;;13.65;76.25
43683;BME280;29285;52.128;21.060;2022-10-17T05:31:37;101415.83;;;13.71;76.37
43683;BME280;29285;52.128;21.060;2022-10-17T05:36:39;101411.53;;;13.66;76.42
43683;BME280;29285;52.128;21.060;2022-10-17T05:41:40;101416.28;;;13.68;76.43
43683;BME280;29285;52.128;21.060;2022-10-17T05:46:41;101420.09;;;13.79;76.57
43683;BME280;29285;52.128;21.060;2022-10-17T05:51:42;101431.74;;;13.89;76.74
43683;BME280;29285;52.128;21.060;2022-10-17T05:56:44;101446.87;;;13.99;76.83
43683;BME280;29285;52.128;21.060;2022-10-17T06:01:45;101454.17;;;14.09;76.91
43683;BME280;29285;52.128;21.060;2022-10-17T06:06:46;101456.30;;;14.13;76.90
43683;BME280;29285;52.128;21.060;2022-10-17T06:11:47;101462.23;;;14.26;76.90
43683;BME280;29285;52.128;21.060;2022-10-17T06:16:49;101457.80;;;14.33;76.92
43683;BME280;29285;52.128;21.060;2022-10-17T06:21:50;101455.09;;;14.37;76.92
43683;BME280;29285;52.128;21.060;2022-10-17T06:26:51;101451.55;;;14.41;76.93
43683;BME280;29285;52.128;21.060;2022-10-17T06:31:52;101485.07;;;14.48;76.93
43683;BME280;29285;52.128;21.060;2022-10-17T06:36:54;101497.64;;;14.55;76.90
43683;BME280;29285;52.128;21.060;2022-10-17T06:41:55;101484.86;;;14.62;76.91
43683;BME280;29285;52.128;21.060;2022-10-17T06:46:56;101491.80;;;14.66;76.91
43683;BME280;29285;52.128;21.060;2022-10-17T06:51:58;101488.64;;;14.73;76.91
43683;BME280;29285;52.128;21.060;2022-10-17T06:57:01;101498.56;;;14.83;76.89
43683;BME280;29285;52.128;21.060;2022-10-17T07:02:02;101501.52;;;14.90;76.89
43683;BME280;29285;52.128;21.060;2022-10-17T07:07:03;101506.66;;;14.97;76.82
43683;BME280;29285;52.128;21.060;2022-10-17T07:12:05;101509.73;;;14.94;76.70
43683;BME280;29285;52.128;21.060;2022-10-17T07:17:07;101500.25;;;14.87;76.57
43683;BME280;29285;52.128;21.060;2022-10-17T07:22:10;101501.54;;;14.89;76.50
43683;BME280;29285;52.128;21.060;2022-10-17T07:27:13;101509.14;;;15.06;76.64
43683;BME280;29285;52.128;21.060;2022-10-17T07:32:14;101513.86;;;15.11;76.66
43683;BME280;29285;52.128;21.060;2022-10-17T07:37:15;101517.72;;;15.14;76.57
43683;BME280;29285;52.128;21.060;2022-10-17T07:42:17;101509.67;;;15.27;76.64
43683;BME280;29285;52.128;21.060;2022-10-17T07:47:18;101506.95;;;15.31;76.64
43683;BME280;29285;52.128;21.060;2022-10-17T07:52:19;101508.98;;;15.41;76.62
43683;BME280;29285;52.128;21.060;2022-10-17T07:57:20;101524.38;;;15.60;76.71
43683;BME280;29285;52.128;21.060;2022-10-17T08:02:22;101531.02;;;15.80;76.79
43683;BME280;29285;52.128;21.060;2022-10-17T08:07:24;101530.33;;;15.93;76.81
43683;BME280;29285;52.128;21.060;2022-10-17T08:12:26;101541.54;;;16.04;76.72
43683;BME280;29285;52.128;21.060;2022-10-17T08:17:27;101539.17;;;16.13;76.66
43683;BME280;29285;52.128;21.060;2022-10-17T08:22:28;101549.95;;;16.20;76.56
43683;BME280;29285;52.128;21.060;2022-10-17T08:27:29;101552.26;;;16.36;76.52
43683;BME280;29285;52.128;21.060;2022-10-17T08:32:32;101549.39;;;16.48;76.49
43683;BME280;29285;52.128;21.060;2022-10-17T08:37:33;101543.06;;;16.57;76.37
43683;BME280;29285;52.128;21.060;2022-10-17T08:47:53;101547.62;;;16.68;76.17
43683;BME280;29285;52.128;21.060;2022-10-17T08:58:27;101531.61;;;16.79;75.95
43683;BME280;29285;52.128;21.060;2022-10-17T09:03:38;101529.59;;;16.91;75.86
43683;BME280;29285;52.128;21.060;2022-10-17T09:09:04;101531.22;;;16.97;75.73
43683;BME280;29285;52.128;21.060;2022-10-17T09:19:20;101527.66;;;17.19;75.49
43683;BME280;29285;52.128;21.060;2022-10-17T09:24:41;101529.02;;;17.34;75.39
43683;BME280;29285;52.128;21.060;2022-10-17T09:29:44;101528.05;;;17.55;75.38
43683;BME280;29285;52.128;21.060;2022-10-17T09:34:46;101529.86;;;17.69;75.28
43683;BME280;29285;52.128;21.060;2022-10-17T09:39:47;101532.28;;;17.77;75.02
43683;BME280;29285;52.128;21.060;2022-10-17T09:50:02;101518.47;;;18.00;74.65
43683;BME280;29285;52.128;21.060;2022-10-17T10:00:23;101514.39;;;18.22;74.24
43683;BME280;29285;52.128;21.060;2022-10-17T10:05:27;101502.07;;;18.37;74.15
43683;BME280;29285;52.128;21.060;2022-10-17T10:10:28;101504.55;;;18.57;74.03
43683;BME280;29285;52.128;21.060;2022-10-17T10:15:37;101500.20;;;18.70;73.84
43683;BME280;29285;52.128;21.060;2022-10-17T10:47:15;101496.00;;;19.94;72.36
43683;BME280;29285;52.128;21.060;2022-10-17T10:52:26;101492.23;;;19.90;71.69
43683;BME280;29285;52.128;21.060;2022-10-17T10:57:36;101478.18;;;20.13;71.52
43683;BME280;29285;52.128;21.060;2022-10-17T11:02:41;101481.66;;;20.26;71.34
43683;BME280;29285;52.128;21.060;2022-10-17T11:07:58;101480.92;;;20.10;70.50
43683;BME280;29285;52.128;21.060;2022-10-17T11:13:00;101475.93;;;20.14;70.08
43683;BME280;29285;52.128;21.060;2022-10-17T11:18:07;101479.87;;;20.38;69.99
43683;BME280;29285;52.128;21.060;2022-10-17T11:23:18;101475.27;;;20.66;70.00
43683;BME280;29285;52.128;21.060;2022-10-17T11:28:22;101474.36;;;20.77;69.48
43683;BME280;29285;52.128;21.060;2022-10-17T11:33:33;101475.34;;;20.97;69.14
43683;BME280;29285;52.128;21.060;2022-10-17T11:38:48;101476.29;;;21.16;68.71
43683;BME280;29285;52.128;21.060;2022-10-17T11:44:00;101476.06;;;21.42;68.65
43683;BME280;29285;52.128;21.060;2022-10-17T12:04:47;101480.94;;;21.82;67.00
43683;BME280;29285;52.128;21.060;2022-10-17T12:15:25;101478.03;;;22.08;66.25
43683;BME280;29285;52.128;21.060;2022-10-17T12:20:27;101474.17;;;22.43;66.20
43683;BME280;29285;52.128;21.060;2022-10-17T12:25:33;101479.25;;;22.76;66.10
43683;BME280;29285;52.128;21.060;2022-10-17T12:30:35;101477.44;;;22.77;65.36
43683;BME280;29285;52.128;21.060;2022-10-17T12:35:37;101469.68;;;22.54;64.22
43683;BME280;29285;52.128;21.060;2022-10-17T12:40:48;101461.38;;;22.71;63.95
43683;BME280;29285;52.128;21.060;2022-10-17T12:51:02;101459.66;;;22.51;62.93
43683;BME280;29285;52.128;21.060;2022-10-17T12:56:09;101453.21;;;22.28;62.71
43683;BME280;29285;52.128;21.060;2022-10-17T13:01:15;101451.16;;;22.16;62.37
43683;BME280;29285;52.128;21.060;2022-10-17T13:06:23;101439.52;;;22.38;62.48
43683;BME280;29285;52.128;21.060;2022-10-17T13:11:25;101440.37;;;22.57;62.46
43683;BME280;29285;52.128;21.060;2022-10-17T13:16:31;101444.03;;;22.55;61.97
43683;BME280;29285;52.128;21.060;2022-10-17T13:21:34;101444.52;;;22.63;61.57
43683;BME280;29285;52.128;21.060;2022-10-17T13:26:35;101435.41;;;22.86;61.43
43683;BME280;29285;52.128;21.060;2022-10-17T13:31:37;101437.50;;;23.06;61.20
43683;BME280;29285;52.128;21.060;2022-10-17T13:36:41;101432.68;;;23.48;61.27
43683;BME280;29285;52.128;21.060;2022-10-17T13:41:42;101426.72;;;23.86;61.22
43683;BME280;29285;52.128;21.060;2022-10-17T13:46:44;101427.03;;;24.44;60.77
43683;BME280;29285;52.128;21.060;2022-10-17T13:51:47;101420.85;;;24.90;59.81
43683;BME280;29285;52.128;21.060;2022-10-17T13:56:54;101411.74;;;24.94;58.50
43683;BME280;29285;52.128;21.060;2022-10-17T14:01:57;101412.52;;;25.04;57.93
43683;BME280;29285;52.128;21.060;2022-10-17T14:07:00;101411.67;;;25.61;57.53
43683;BME280;29285;52.128;21.060;2022-10-17T14:12:07;101407.45;;;25.86;57.20
43683;BME280;29285;52.128;21.060;2022-10-17T14:17:12;101408.81;;;25.06;56.70
43683;BME280;29285;52.128;21.060;2022-10-17T14:27:27;101398.19;;;23.64;56.59
43683;BME280;29285;52.128;21.060;2022-10-17T14:32:34;101401.98;;;23.09;56.71
43683;BME280;29285;52.128;21.060;2022-10-17T14:37:37;101401.98;;;22.65;56.90
43683;BME280;29285;52.128;21.060;2022-10-17T14:42:39;101394.64;;;22.24;57.09
43683;BME280;29285;52.128;21.060;2022-10-17T14:47:40;101397.04;;;21.83;57.21
43683;BME280;29285;52.128;21.060;2022-10-17T14:52:48;101396.78;;;21.49;57.43
43683;BME280;29285;52.128;21.060;2022-10-17T14:57:47;101395.63;;;21.25;57.68
43683;BME280;29285;52.128;21.060;2022-10-17T15:02:48;101395.25;;;21.03;57.93
43683;BME280;29285;52.128;21.060;2022-10-17T15:07:50;101400.28;;;20.89;58.21
43683;BME280;29285;52.128;21.060;2022-10-17T15:12:51;101401.95;;;20.69;58.44
43683;BME280;29285;52.128;21.060;2022-10-17T15:17:53;101397.36;;;20.52;58.62
43683;BME280;29285;52.128;21.060;2022-10-17T15:22:54;101396.67;;;20.36;58.88
43683;BME280;29285;52.128;21.060;2022-10-17T15:27:57;101398.95;;;20.23;59.10
43683;BME280;29285;52.128;21.060;2022-10-17T15:32:58;101399.02;;;20.10;59.32
43683;BME280;29285;52.128;21.060;2022-10-17T15:38:00;101398.67;;;19.95;59.52
43683;BME280;29285;52.128;21.060;2022-10-17T15:43:01;101394.80;;;19.82;59.74
43683;BME280;29285;52.128;21.060;2022-10-17T15:48:04;101399.45;;;19.75;59.99
43683;BME280;29285;52.128;21.060;2022-10-17T15:53:10;101392.80;;;19.65;60.17
43683;BME280;29285;52.128;21.060;2022-10-17T15:58:13;101390.50;;;19.55;60.36
43683;BME280;29285;52.128;21.060;2022-10-17T16:03:15;101400.64;;;19.42;60.51
43683;BME280;29285;52.128;21.060;2022-10-17T16:08:16;101386.99;;;19.31;60.66
43683;BME280;29285;52.128;21.060;2022-10-17T16:13:18;101400.91;;;19.23;60.88
43683;BME280;29285;52.128;21.060;2022-10-17T16:18:21;101391.59;;;19.12;61.08
43683;BME280;29285;52.128;21.060;2022-10-17T16:23:22;101392.31;;;19.04;61.24
43683;BME280;29285;52.128;21.060;2022-10-17T16:28:23;101385.61;;;18.94;61.43
43683;BME280;29285;52.128;21.060;2022-10-17T16:33:25;101387.09;;;18.89;61.62
43683;BME280;29285;52.128;21.060;2022-10-17T16:38:26;101385.96;;;18.83;61.79
43683;BME280;29285;52.128;21.060;2022-10-17T16:43:27;101380.86;;;18.78;61.95
43683;BME280;29285;52.128;21.060;2022-10-17T16:48:30;101370.13;;;18.71;62.08
43683;BME280;29285;52.128;21.060;2022-10-17T16:53:31;101374.80;;;18.62;62.21
43683;BME280;29285;52.128;21.060;2022-10-17T16:58:32;101374.70;;;18.52;62.35
43683;BME280;29285;52.128;21.060;2022-10-17T17:03:34;101379.77;;;18.45;62.51
43683;BME280;29285;52.128;21.060;2022-10-17T17:08:36;101373.48;;;18.35;62.67
43683;BME280;29285;52.128;21.060;2022-10-17T17:13:37;101374.57;;;18.28;62.83
43683;BME280;29285;52.128;21.060;2022-10-17T17:18:39;101382.63;;;18.23;63.00
43683;BME280;29285;52.128;21.060;2022-10-17T17:23:41;101374.02;;;18.18;63.16
43683;BME280;29285;52.128;21.060;2022-10-17T17:28:43;101370.27;;;18.12;63.30
43683;BME280;29285;52.128;21.060;2022-10-17T17:33:45;101378.77;;;18.05;63.44
43683;BME280;29285;52.128;21.060;2022-10-17T17:38:46;101373.16;;;18.03;63.61
43683;BME280;29285;52.128;21.060;2022-10-17T17:43:48;101374.98;;;17.99;63.79
43683;BME280;29285;52.128;21.060;2022-10-17T17:48:51;101372.91;;;17.95;63.91
43683;BME280;29285;52.128;21.060;2022-10-17T17:53:54;101375.70;;;17.91;64.04
43683;BME280;29285;52.128;21.060;2022-10-17T17:58:56;101368.80;;;17.86;64.17
43683;BME280;29285;52.128;21.060;2022-10-17T18:03:59;101372.47;;;17.81;64.32
43683;BME280;29285;52.128;21.060;2022-10-17T18:09:00;101379.56;;;17.79;64.45
43683;BME280;29285;52.128;21.060;2022-10-17T18:14:03;101376.16;;;17.75;64.58
43683;BME280;29285;52.128;21.060;2022-10-17T18:19:07;101378.55;;;17.68;64.68
43683;BME280;29285;52.128;21.060;2022-10-17T18:24:10;101370.88;;;17.60;64.75
43683;BME280;29285;52.128;21.060;2022-10-17T18:29:11;101376.30;;;17.55;64.86
43683;BME280;29285;52.128;21.060;2022-10-17T18:34:12;101373.84;;;17.49;64.97
43683;BME280;29285;52.128;21.060;2022-10-17T18:39:13;101372.68;;;17.43;65.06
43683;BME280;29285;52.128;21.060;2022-10-17T18:44:14;101364.60;;;17.34;65.13
43683;BME280;29285;52.128;21.060;2022-10-17T18:49:17;101370.01;;;17.29;65.26
43683;BME280;29285;52.128;21.060;2022-10-17T18:54:20;101363.10;;;17.25;65.36
43683;BME280;29285;52.128;21.060;2022-10-17T18:59:21;101368.94;;;17.20;65.47
43683;BME280;29285;52.128;21.060;2022-10-17T19:04:22;101363.38;;;17.14;65.58
43683;BME280;29285;52.128;21.060;2022-10-17T19:09:24;101374.88;;;17.10;65.69
43683;BME280;29285;52.128;21.060;2022-10-17T19:14:25;101362.31;;;17.05;65.79
43683;BME280;29285;52.128;21.060;2022-10-17T19:19:28;101367.27;;;16.99;65.91
43683;BME280;29285;52.128;21.060;2022-10-17T19:24:29;101367.84;;;16.94;65.96
43683;BME280;29285;52.128;21.060;2022-10-17T19:29:30;101354.37;;;16.90;66.08
43683;BME280;29285;52.128;21.060;2022-10-17T19:34:33;101355.81;;;16.85;66.18
43683;BME280;29285;52.128;21.060;2022-10-17T19:39:34;101364.95;;;16.87;66.29
43683;BME280;29285;52.128;21.060;2022-10-17T19:44:36;101354.13;;;16.83;66.38
43683;BME280;29285;52.128;21.060;2022-10-17T19:49:37;101351.54;;;16.81;66.45
43683;BME280;29285;52.128;21.060;2022-10-17T19:54:39;101354.27;;;16.76;66.50
43683;BME280;29285;52.128;21.060;2022-10-17T19:59:40;101355.68;;;16.73;66.55
43683;BME280;29285;52.128;21.060;2022-10-17T20:04:42;101353.52;;;16.71;66.63
43683;BME280;29285;52.128;21.060;2022-10-17T20:09:43;101351.44;;;16.67;66.67
43683;BME280;29285;52.128;21.060;2022-10-17T20:14:44;101343.20;;;16.63;66.73
43683;BME280;29285;52.128;21.060;2022-10-17T20:19:45;101348.50;;;16.62;66.80
43683;BME280;29285;52.128;21.060;2022-10-17T20:24:46;101339.97;;;16.53;66.83
43683;BME280;29285;52.128;21.060;2022-10-17T20:29:48;101340.19;;;16.44;66.83
43683;BME280;29285;52.128;21.060;2022-10-17T20:34:49;101333.34;;;16.37;66.86
43683;BME280;29285;52.128;21.060;2022-10-17T20:39:51;101326.69;;;16.23;66.88
43683;BME280;29285;52.128;21.060;2022-10-17T20:44:52;101327.22;;;16.20;67.00
43683;BME280;29285;52.128;21.060;2022-10-17T20:49:53;101323.87;;;16.13;67.11
43683;BME280;29285;52.128;21.060;2022-10-17T20:54:54;101315.23;;;16.08;67.20
43683;BME280;29285;52.128;21.060;2022-10-17T20:59:55;101314.20;;;15.95;67.24
43683;BME280;29285;52.128;21.060;2022-10-17T21:04:56;101307.34;;;15.88;67.31
43683;BME280;29285;52.128;21.060;2022-10-17T21:09:58;101303.95;;;15.83;67.41
43683;BME280;29285;52.128;21.060;2022-10-17T21:14:59;101291.83;;;15.77;67.53
43683;BME280;29285;52.128;21.060;2022-10-17T21:20:00;101289.70;;;15.75;67.64
43683;BME280;29285;52.128;21.060;2022-10-17T21:25:01;101295.13;;;15.67;67.74
43683;BME280;29285;52.128;21.060;2022-10-17T21:30:03;101298.27;;;15.64;67.82
43683;BME280;29285;52.128;21.060;2022-10-17T21:35:05;101297.45;;;15.60;67.95
43683;BME280;29285;52.128;21.060;2022-10-17T21:40:07;101295.81;;;15.56;68.00
43683;BME280;29285;52.128;21.060;2022-10-17T21:45:09;101292.84;;;15.52;68.11
43683;BME280;29285;52.128;21.060;2022-10-17T21:50:10;101289.86;;;15.47;68.23
43683;BME280;29285;52.128;21.060;2022-10-17T21:55:12;101282.95;;;15.43;68.27
43683;BME280;29285;52.128;21.060;2022-10-17T22:00:13;101281.66;;;15.42;68.36
43683;BME280;29285;52.128;21.060;2022-10-17T22:05:15;101277.84;;;15.37;68.44
43683;BME280;29285;52.128;21.060;2022-10-17T22:10:16;101279.31;;;15.29;68.49
43683;BME280;29285;52.128;21.060;2022-10-17T22:15:17;101278.52;;;15.26;68.58
43683;BME280;29285;52.128;21.060;2022-10-17T22:20:18;101278.45;;;15.27;68.73
43683;BME280;29285;52.128;21.060;2022-10-17T22:25:19;101279.45;;;15.23;68.77
43683;BME280;29285;52.128;21.060;2022-10-17T22:30:20;101267.86;;;15.12;68.79
43683;BME280;29285;52.128;21.060;2022-10-17T22:35:21;101265.36;;;15.06;68.85
43683;BME280;29285;52.128;21.060;2022-10-17T22:40:22;101262.66;;;15.09;69.20
43683;BME280;29285;52.128;21.060;2022-10-17T22:45:23;101263.87;;;14.92;69.18
43683;BME280;29285;52.128;21.060;2022-10-17T22:50:24;101260.06;;;14.86;69.26
43683;BME280;29285;52.128;21.060;2022-10-17T22:55:26;101261.02;;;14.82;69.35
43683;BME280;29285;52.128;21.060;2022-10-17T23:00:27;101270.23;;;14.79;69.47
43683;BME280;29285;52.128;21.060;2022-10-17T23:05:28;101270.23;;;14.79;69.59
43683;BME280;29285;52.128;21.060;2022-10-17T23:10:29;101267.67;;;14.74;69.69
43683;BME280;29285;52.128;21.060;2022-10-17T23:15:31;101257.39;;;14.63;69.69
43683;BME280;29285;52.128;21.060;2022-10-17T23:20:32;101259.59;;;14.62;69.77
43683;BME280;29285;52.128;21.060;2022-10-17T23:25:33;101266.63;;;14.60;69.92
43683;BME280;29285;52.128;21.060;2022-10-17T23:30:35;101261.94;;;14.53;70.00
43683;BME280;29285;52.128;21.060;2022-10-17T23:35:37;101259.88;;;14.47;70.09
43683;BME280;29285;52.128;21.060;2022-10-17T23:40:39;101262.08;;;14.46;70.20
43683;BME280;29285;52.128;21.060;2022-10-17T23:45:41;101256.84;;;14.46;70.34
43683;BME280;29285;52.128;21.060;2022-10-17T23:50:42;101253.37;;;14.43;70.42
43683;BME280;29285;52.128;21.060;2022-10-17T23:55:43;101251.73;;;14.38;70.52
